createdAt,value
2018-03-20T00:01:02.158Z,1006.55
2018-03-20T00:02:11.596Z,1006.51
2018-03-20T00:03:21.044Z,1006.47
2018-03-20T00:04:30.803Z,1006.48
2018-03-20T00:05:40.247Z,1006.48
2018-03-20T00:06:49.942Z,1006.45
2018-03-20T00:07:59.914Z,1006.47
2018-03-20T00:09:09.873Z,1006.43
2018-03-20T00:10:19.584Z,1006.45
2018-03-20T00:11:29.282Z,1006.42
2018-03-20T00:12:38.727Z,1006.4
2018-03-20T00:13:48.419Z,1006.41
2018-03-20T00:14:58.392Z,1006.38
2018-03-20T00:16:08.106Z,1006.39
2018-03-20T00:17:17.810Z,1006.42
2018-03-20T00:18:26.996Z,1006.38
2018-03-20T00:19:36.970Z,1006.39
2018-03-20T00:20:46.419Z,1006.41
2018-03-20T00:21:56.388Z,1006.43
2018-03-20T00:23:06.083Z,1006.41
2018-03-20T00:24:16.068Z,1006.42
2018-03-20T00:25:26.050Z,1006.38
2018-03-20T00:26:36.024Z,1006.42
2018-03-20T00:27:45.473Z,1006.41
2018-03-20T00:28:55.163Z,1006.39
2018-03-20T00:30:04.858Z,1006.41
2018-03-20T00:31:14.807Z,1006.4
2018-03-20T00:32:24.496Z,1006.39
2018-03-20T00:33:34.205Z,1006.39
2018-03-20T00:34:43.903Z,1006.36
2018-03-20T00:35:53.609Z,1006.35
2018-03-20T00:37:03.573Z,1006.36
2018-03-20T00:38:13.538Z,1006.32
2018-03-20T00:39:22.994Z,1006.34
2018-03-20T00:40:32.979Z,1006.35
2018-03-20T00:41:42.927Z,1006.33
2018-03-20T00:42:52.625Z,1006.28
2018-03-20T00:44:02.577Z,1006.29
2018-03-20T00:45:12.584Z,1006.28
2018-03-20T00:46:22.284Z,1006.28
2018-03-20T00:47:31.723Z,1006.21
2018-03-20T00:48:41.683Z,1006.21
2018-03-20T00:49:51.380Z,1006.22
2018-03-20T00:51:01.098Z,1006.17
2018-03-20T00:52:11.067Z,1006.19
2018-03-20T00:53:20.757Z,1006.17
2018-03-20T00:54:30.457Z,1006.22
2018-03-20T00:55:40.426Z,1006.21
2018-03-20T00:56:50.128Z,1006.22
2018-03-20T00:57:59.821Z,1006.22
2018-03-20T00:59:09.261Z,1006.24
2018-03-20T01:00:18.714Z,1006.21
2018-03-20T01:01:28.144Z,1006.21
2018-03-20T01:02:38.081Z,1006.2
2018-03-20T01:03:47.515Z,1006.15
2018-03-20T01:04:57.471Z,1006.17
2018-03-20T01:06:06.903Z,1006.14
2018-03-20T01:07:16.858Z,1006.14
2018-03-20T01:08:26.556Z,1006.14
2018-03-20T01:09:36.257Z,1006.17
2018-03-20T01:10:46.210Z,1006.15
2018-03-20T01:11:56.171Z,1006.11
2018-03-20T01:13:06.121Z,1006.18
2018-03-20T01:14:16.326Z,1006.15
2018-03-20T01:15:26.298Z,1006.14
2018-03-20T01:16:35.995Z,1006.09
2018-03-20T01:17:44.913Z,1006.1
2018-03-20T01:18:54.878Z,1006.08
2018-03-20T01:20:04.822Z,1006.07
2018-03-20T01:21:14.775Z,1006.08
2018-03-20T01:22:24.463Z,1006.05
2018-03-20T01:23:34.425Z,1006.06
2018-03-20T01:24:44.123Z,1006.05
2018-03-20T01:25:54.072Z,1006.02
2018-03-20T01:27:04.028Z,1005.96
2018-03-20T01:28:13.974Z,1005.97
2018-03-20T01:29:23.927Z,1005.98
2018-03-20T01:30:33.883Z,1005.96
2018-03-20T01:31:43.838Z,1005.94
2018-03-20T01:32:53.795Z,1005.99
2018-03-20T01:34:03.491Z,1006.01
2018-03-20T01:35:13.189Z,1005.95
2018-03-20T01:36:22.946Z,1006.01
2018-03-20T01:37:32.912Z,1006
2018-03-20T01:38:42.604Z,1006.04
2018-03-20T01:39:52.561Z,1005.98
2018-03-20T01:41:02.562Z,1005.98
2018-03-20T01:42:12.527Z,1005.95
2018-03-20T01:43:21.972Z,1005.9
2018-03-20T01:44:31.675Z,1005.86
2018-03-20T01:45:41.685Z,1005.86
2018-03-20T01:46:51.642Z,1005.8
2018-03-20T01:48:01.606Z,1005.75
2018-03-20T01:49:11.575Z,1005.74
2018-03-20T01:50:21.289Z,1005.71
2018-03-20T01:51:31.248Z,1005.74
2018-03-20T01:52:41.217Z,1005.71
2018-03-20T01:53:51.173Z,1005.72
2018-03-20T01:55:00.878Z,1005.7
2018-03-20T01:56:10.332Z,1005.69
2018-03-20T01:57:20.292Z,1005.69
2018-03-20T01:58:30.244Z,1005.67
2018-03-20T01:59:40.207Z,1005.65
2018-03-20T02:00:49.901Z,1005.66
2018-03-20T02:01:59.342Z,1005.65
2018-03-20T02:03:09.301Z,1005.61
2018-03-20T02:04:19.251Z,1005.53
2018-03-20T02:05:29.201Z,1005.57
2018-03-20T02:06:38.914Z,1005.56
2018-03-20T02:07:48.906Z,1005.57
2018-03-20T02:08:58.867Z,1005.53
2018-03-20T02:10:08.301Z,1005.52
2018-03-20T02:11:18.249Z,1005.5
2018-03-20T02:12:28.191Z,1005.49
2018-03-20T02:13:37.886Z,1005.47
2018-03-20T02:14:47.845Z,1005.46
2018-03-20T02:15:57.810Z,1005.44
2018-03-20T02:17:07.752Z,1005.44
2018-03-20T02:18:17.459Z,1005.43
2018-03-20T02:19:27.483Z,1005.43
2018-03-20T02:20:37.432Z,1005.42
2018-03-20T02:21:47.383Z,1005.4
2018-03-20T02:22:57.345Z,1005.39
2018-03-20T02:24:06.524Z,1005.38
2018-03-20T02:25:16.488Z,1005.34
2018-03-20T02:26:26.441Z,1005.36
2018-03-20T02:27:36.396Z,1005.33
2018-03-20T02:28:46.603Z,1005.35
2018-03-20T02:29:56.565Z,1005.35
2018-03-20T02:31:06.546Z,1005.36
2018-03-20T02:32:16.258Z,1005.42
2018-03-20T02:33:26.211Z,1005.38
2018-03-20T02:34:35.919Z,1005.32
2018-03-20T02:35:45.877Z,1005.3
2018-03-20T02:36:55.836Z,1005.32
2018-03-20T02:38:05.285Z,1005.28
2018-03-20T02:39:14.733Z,1005.3
2018-03-20T02:40:24.712Z,1005.3
2018-03-20T02:41:34.679Z,1005.3
2018-03-20T02:42:44.645Z,1005.25
2018-03-20T02:43:54.602Z,1005.31
2018-03-20T02:45:04.296Z,1005.24
2018-03-20T02:46:13.982Z,1005.28
2018-03-20T02:47:23.939Z,1005.19
2018-03-20T02:48:33.962Z,1005.23
2018-03-20T02:49:43.934Z,1005.24
2018-03-20T02:50:53.897Z,1005.21
2018-03-20T02:52:03.981Z,1005.2
2018-03-20T02:53:13.926Z,1005.2
2018-03-20T02:54:23.628Z,1005.16
2018-03-20T02:55:33.583Z,1005.16
2018-03-20T02:56:43.559Z,1005.17
2018-03-20T02:57:53.524Z,1005.08
2018-03-20T02:59:03.492Z,1005.17
2018-03-20T03:00:13.471Z,1005.16
2018-03-20T03:01:23.521Z,1005.13
2018-03-20T03:02:33.479Z,1005.11
2018-03-20T03:03:43.426Z,1005.06
2018-03-20T03:04:53.141Z,1005.02
2018-03-20T03:06:03.129Z,1005.01
2018-03-20T03:07:12.838Z,1004.95
2018-03-20T03:08:22.814Z,1005
2018-03-20T03:09:32.782Z,1005
2018-03-20T03:10:42.734Z,1005.03
2018-03-20T03:11:52.168Z,1005.05
2018-03-20T03:13:01.877Z,1005.03
2018-03-20T03:14:11.580Z,1005.04
2018-03-20T03:15:21.533Z,1005.02
2018-03-20T03:16:31.504Z,1005.01
2018-03-20T03:17:41.465Z,1005.01
2018-03-20T03:18:51.427Z,1004.99
2018-03-20T03:20:01.370Z,1004.99
2018-03-20T03:21:11.324Z,1004.94
2018-03-20T03:22:21.270Z,1004.97
2018-03-20T03:23:30.713Z,1004.95
2018-03-20T03:24:40.676Z,1004.94
2018-03-20T03:25:50.376Z,1004.96
2018-03-20T03:27:00.330Z,1004.91
2018-03-20T03:28:10.289Z,1004.91
2018-03-20T03:29:19.984Z,1004.89
2018-03-20T03:30:29.411Z,1004.82
2018-03-20T03:31:39.172Z,1004.83
2018-03-20T03:32:48.865Z,1004.83
2018-03-20T03:33:58.310Z,1004.79
2018-03-20T03:35:07.753Z,1004.78
2018-03-20T03:36:17.711Z,1004.73
2018-03-20T03:37:27.691Z,1004.78
2018-03-20T03:38:37.389Z,1004.72
2018-03-20T03:39:47.130Z,1004.79
2018-03-20T03:40:56.560Z,1004.8
2018-03-20T03:42:06.253Z,1004.71
2018-03-20T03:43:16.206Z,1004.76
2018-03-20T03:44:26.151Z,1004.74
2018-03-20T03:45:35.842Z,1004.74
2018-03-20T03:46:45.562Z,1004.75
2018-03-20T03:47:55.260Z,1004.8
2018-03-20T03:49:04.950Z,1004.84
2018-03-20T03:50:14.902Z,1004.86
2018-03-20T03:51:24.591Z,1004.82
2018-03-20T03:52:34.288Z,1004.84
2018-03-20T03:53:44.258Z,1004.88
2018-03-20T03:54:54.204Z,1004.91
2018-03-20T03:56:03.891Z,1004.97
2018-03-20T03:57:13.573Z,1004.95
2018-03-20T03:58:23.553Z,1004.97
2018-03-20T03:59:33.502Z,1005.02
2018-03-20T04:00:43.188Z,1005.08
2018-03-20T04:01:53.139Z,1005.11
2018-03-20T04:03:03.351Z,1005.18
2018-03-20T04:04:13.359Z,1005.14
2018-03-20T04:05:23.312Z,1005.21
2018-03-20T04:06:33.264Z,1005.24
2018-03-20T04:07:42.439Z,1005.29
2018-03-20T04:08:52.137Z,1005.3
2018-03-20T04:10:02.110Z,1005.29
2018-03-20T04:11:11.800Z,1005.29
2018-03-20T04:12:21.750Z,1005.3
2018-03-20T04:13:31.808Z,1005.32
2018-03-20T04:14:41.514Z,1005.34
2018-03-20T04:15:51.469Z,1005.29
2018-03-20T04:17:01.424Z,1005.32
2018-03-20T04:18:11.460Z,1005.32
2018-03-20T04:19:21.306Z,1005.31
2018-03-20T04:20:31.025Z,1005.35
2018-03-20T04:21:40.712Z,1005.28
2018-03-20T04:22:50.665Z,1005.29
2018-03-20T04:24:00.640Z,1005.25
2018-03-20T04:25:10.081Z,1005.27
2018-03-20T04:26:19.809Z,1005.28
2018-03-20T04:27:29.251Z,1005.31
2018-03-20T04:28:39.205Z,1005.31
2018-03-20T04:29:48.646Z,1005.29
2018-03-20T04:30:58.613Z,1005.32
2018-03-20T04:32:08.570Z,1005.34
2018-03-20T04:33:18.516Z,1005.29
2018-03-20T04:34:28.216Z,1005.3
2018-03-20T04:35:38.168Z,1005.29
2018-03-20T04:36:48.117Z,1005.3
2018-03-20T04:37:58.073Z,1005.31
2018-03-20T04:39:08.090Z,1005.28
2018-03-20T04:40:18.044Z,1005.3
2018-03-20T04:41:27.730Z,1005.28
2018-03-20T04:42:37.681Z,1005.25
2018-03-20T04:43:47.395Z,1005.26
2018-03-20T04:44:57.348Z,1005.25
2018-03-20T04:46:07.045Z,1005.2
2018-03-20T04:47:16.997Z,1005.2
2018-03-20T04:48:26.954Z,1005.16
2018-03-20T04:49:36.919Z,1005.18
2018-03-20T04:50:46.886Z,1005.14
2018-03-20T04:51:56.843Z,1005.14
2018-03-20T04:53:06.541Z,1005.13
2018-03-20T04:54:16.505Z,1005.15
2018-03-20T04:55:26.462Z,1005.15
2018-03-20T04:56:36.414Z,1005.2
2018-03-20T04:57:45.857Z,1005.15
2018-03-20T04:58:55.823Z,1005.17
2018-03-20T05:00:05.780Z,1005.11
2018-03-20T05:01:15.748Z,1005.09
2018-03-20T05:02:25.439Z,1005.1
2018-03-20T05:03:35.138Z,1005.13
2018-03-20T05:04:44.837Z,1005.11
2018-03-20T05:05:54.793Z,1005.16
2018-03-20T05:07:05.018Z,1005.18
2018-03-20T05:08:14.711Z,1005.11
2018-03-20T05:09:24.401Z,1005.11
2018-03-20T05:10:34.368Z,1005.15
2018-03-20T05:11:44.327Z,1005.1
2018-03-20T05:12:54.776Z,1005.06
2018-03-20T05:14:04.768Z,1005.05
2018-03-20T05:15:14.454Z,1005.03
2018-03-20T05:16:24.417Z,1005.05
2018-03-20T05:17:34.110Z,1005.09
2018-03-20T05:18:44.322Z,1005.02
2018-03-20T05:19:54.113Z,1005.01
2018-03-20T05:21:03.805Z,1004.99
2018-03-20T05:22:13.751Z,1005.02
2018-03-20T05:23:23.715Z,1005
2018-03-20T05:24:33.661Z,1005.01
2018-03-20T05:25:43.345Z,1004.96
2018-03-20T05:26:53.294Z,1004.92
2018-03-20T05:28:03.250Z,1004.93
2018-03-20T05:29:13.203Z,1004.92
2018-03-20T05:30:22.896Z,1004.98
2018-03-20T05:31:32.856Z,1004.99
2018-03-20T05:32:42.560Z,1004.94
2018-03-20T05:33:52.250Z,1004.93
2018-03-20T05:35:02.225Z,1004.9
2018-03-20T05:36:12.435Z,1004.93
2018-03-20T05:37:22.385Z,1004.94
2018-03-20T05:38:32.090Z,1004.97
2018-03-20T05:39:42.068Z,1004.91
2018-03-20T05:40:52.027Z,1004.93
2018-03-20T05:42:02.028Z,1004.9
2018-03-20T05:43:11.204Z,1004.97
2018-03-20T05:44:20.642Z,1004.89
2018-03-20T05:45:30.598Z,1004.93
2018-03-20T05:46:40.562Z,1004.92
2018-03-20T05:47:50.249Z,1004.97
2018-03-20T05:49:00.204Z,1005.05
2018-03-20T05:50:09.901Z,1004.98
2018-03-20T05:51:19.604Z,1005.01
2018-03-20T05:52:29.579Z,1004.96
2018-03-20T05:53:39.788Z,1004.98
2018-03-20T05:54:49.744Z,1004.95
2018-03-20T05:55:59.693Z,1004.9
2018-03-20T05:57:09.657Z,1004.99
2018-03-20T05:58:19.619Z,1004.94
2018-03-20T05:59:29.621Z,1005.01
2018-03-20T06:00:39.071Z,1005.02
2018-03-20T06:01:48.779Z,1004.99
2018-03-20T06:02:58.742Z,1005.01
2018-03-20T06:04:08.196Z,1005.05
2018-03-20T06:05:17.639Z,1005.08
2018-03-20T06:06:27.607Z,1005.03
2018-03-20T06:07:37.042Z,1005.09
2018-03-20T06:08:46.994Z,1005.12
2018-03-20T06:09:56.948Z,1005.15
2018-03-20T06:11:06.656Z,1005.13
2018-03-20T06:12:16.349Z,1005.14
2018-03-20T06:13:26.038Z,1005.17
2018-03-20T06:14:35.989Z,1005.17
2018-03-20T06:15:45.956Z,1005.19
2018-03-20T06:16:56.228Z,1005.17
2018-03-20T06:18:06.192Z,1005.21
2018-03-20T06:19:16.167Z,1005.23
2018-03-20T06:20:25.972Z,1005.24
2018-03-20T06:21:35.870Z,1005.26
2018-03-20T06:22:45.574Z,1005.27
2018-03-20T06:23:55.558Z,1005.35
2018-03-20T06:25:05.530Z,1005.33
2018-03-20T06:26:15.487Z,1005.37
2018-03-20T06:27:25.443Z,1005.39
2018-03-20T06:28:35.405Z,1005.39
2018-03-20T06:29:45.393Z,1005.38
2018-03-20T06:30:55.097Z,1005.37
2018-03-20T06:32:04.801Z,1005.33
2018-03-20T06:33:14.512Z,1005.36
2018-03-20T06:34:24.481Z,1005.37
2018-03-20T06:35:34.753Z,1005.38
2018-03-20T06:36:44.451Z,1005.35
2018-03-20T06:37:54.144Z,1005.31
2018-03-20T06:39:04.232Z,1005.4
2018-03-20T06:40:13.663Z,1005.4
2018-03-20T06:41:23.369Z,1005.44
2018-03-20T06:42:32.538Z,1005.37
2018-03-20T06:43:42.501Z,1005.38
2018-03-20T06:44:52.466Z,1005.39
2018-03-20T06:46:01.385Z,1005.4
2018-03-20T06:47:11.361Z,1005.4
2018-03-20T06:48:21.322Z,1005.35
2018-03-20T06:49:31.025Z,1005.33
2018-03-20T06:50:40.731Z,1005.3
2018-03-20T06:51:50.433Z,1005.31
2018-03-20T06:53:00.131Z,1005.27
2018-03-20T06:54:09.324Z,1005.33
2018-03-20T06:55:18.763Z,1005.35
2018-03-20T06:56:28.213Z,1005.3
2018-03-20T06:57:37.910Z,1005.37
2018-03-20T06:58:47.607Z,1005.56
2018-03-20T06:59:57.328Z,1005.5
2018-03-20T07:01:07.294Z,1005.34
2018-03-20T07:02:17.465Z,1005.46
2018-03-20T07:03:27.158Z,1005.49
2018-03-20T07:04:36.578Z,1005.53
2018-03-20T07:05:46.271Z,1005.48
2018-03-20T07:06:56.265Z,1005.49
2018-03-20T07:08:06.216Z,1005.51
2018-03-20T07:09:15.928Z,1005.52
2018-03-20T07:10:25.906Z,1005.53
2018-03-20T07:11:35.626Z,1005.51
2018-03-20T07:12:45.387Z,1005.46
2018-03-20T07:13:54.561Z,1005.53
2018-03-20T07:15:04.252Z,1005.5
2018-03-20T07:16:14.217Z,1005.53
2018-03-20T07:17:24.171Z,1005.54
2018-03-20T07:18:34.137Z,1005.54
2018-03-20T07:19:43.861Z,1005.56
2018-03-20T07:20:53.902Z,1005.6
2018-03-20T07:22:03.896Z,1005.67
2018-03-20T07:31:30.074Z,1005.85
2018-03-20T07:32:39.279Z,1005.84
2018-03-20T07:33:49.234Z,1005.82
2018-03-20T07:34:59.214Z,1005.84
2018-03-20T07:36:09.247Z,1005.9
2018-03-20T07:37:18.983Z,1005.94
2018-03-20T07:38:28.441Z,1005.98
2018-03-20T07:39:38.147Z,1006.05
2018-03-20T07:40:48.134Z,1006.02
2018-03-20T07:41:57.855Z,1006.08
2018-03-20T07:43:07.871Z,1005.98
2018-03-20T07:44:17.834Z,1006.03
2018-03-20T07:45:27.860Z,1006
2018-03-20T07:46:37.863Z,1005.97
2018-03-20T07:47:47.822Z,1006.01
2018-03-20T07:48:57.804Z,1006.01
2018-03-20T07:50:07.258Z,1005.98
2018-03-20T07:51:17.216Z,1005.98
2018-03-20T07:52:26.966Z,1005.98
2018-03-20T07:53:36.957Z,1006
2018-03-20T07:54:46.949Z,1006.01
2018-03-20T07:55:56.403Z,1006.06
2018-03-20T07:57:05.600Z,1006.11
2018-03-20T07:58:15.301Z,1006.11
2018-03-20T07:59:25.037Z,1006.13
2018-03-20T08:00:35.013Z,1006.18
2018-03-20T08:01:44.525Z,1006.2
2018-03-20T08:02:54.505Z,1006.19
2018-03-20T08:04:04.217Z,1006.25
2018-03-20T08:05:14.212Z,1006.25
2018-03-20T08:06:23.659Z,1006.3
2018-03-20T08:07:33.381Z,1006.28
2018-03-20T08:08:43.102Z,1006.3
2018-03-20T08:09:53.076Z,1006.27
2018-03-20T08:11:02.810Z,1006.28
2018-03-20T08:12:12.547Z,1006.3
2018-03-20T08:13:21.746Z,1006.31
2018-03-20T08:14:31.513Z,1006.3
2018-03-20T08:15:41.530Z,1006.34
2018-03-20T08:16:51.519Z,1006.34
2018-03-20T08:18:01.208Z,1006.3
2018-03-20T08:19:10.768Z,1006.31
2018-03-20T08:20:20.732Z,1006.37
2018-03-20T08:21:30.698Z,1006.35
2018-03-20T08:22:40.413Z,1006.37
2018-03-20T08:23:50.146Z,1006.39
2018-03-20T08:24:59.871Z,1006.38
2018-03-20T08:26:09.317Z,1006.43
2018-03-20T08:27:19.060Z,1006.43
2018-03-20T08:28:29.023Z,1006.46
2018-03-20T08:29:38.472Z,1006.51
2018-03-20T08:30:48.434Z,1006.5
2018-03-20T08:31:58.153Z,1006.54
2018-03-20T08:33:07.620Z,1006.56
2018-03-20T08:34:17.095Z,1006.6
2018-03-20T08:35:27.086Z,1006.58
2018-03-20T08:36:37.077Z,1006.59
2018-03-20T08:37:47.220Z,1006.64
2018-03-20T08:38:56.924Z,1006.6
2018-03-20T08:40:06.710Z,1006.61
2018-03-20T08:41:16.698Z,1006.69
2018-03-20T08:42:26.663Z,1006.7
2018-03-20T08:43:36.620Z,1006.72
2018-03-20T08:44:46.078Z,1006.72
2018-03-20T08:45:56.052Z,1006.75
2018-03-20T08:47:05.772Z,1006.74
2018-03-20T08:48:15.755Z,1006.8
2018-03-20T08:49:25.458Z,1006.79
2018-03-20T08:50:35.276Z,1006.82
2018-03-20T08:51:45.008Z,1006.84
2018-03-20T08:52:55.001Z,1006.92
2018-03-20T08:54:04.972Z,1006.9
2018-03-20T08:55:14.948Z,1006.92
2018-03-20T08:56:24.407Z,1006.94
2018-03-20T08:57:34.480Z,1006.94
2018-03-20T08:58:44.474Z,1006.96
2018-03-20T08:59:54.195Z,1006.98
2018-03-20T09:01:03.719Z,1007.02
2018-03-20T09:02:13.693Z,1007
2018-03-20T09:03:23.732Z,1007.04
2018-03-20T09:04:33.723Z,1007.1
2018-03-20T09:05:43.179Z,1007.03
2018-03-20T09:06:52.373Z,1007.08
2018-03-20T09:08:02.338Z,1007.06
2018-03-20T09:09:12.338Z,1007.09
2018-03-20T09:10:21.835Z,1007.06
2018-03-20T09:11:31.588Z,1007.09
2018-03-20T09:12:41.325Z,1007.1
2018-03-20T09:13:50.800Z,1007.12
2018-03-20T09:15:00.541Z,1007.18
2018-03-20T09:16:10.016Z,1007.17
2018-03-20T09:17:19.761Z,1007.22
2018-03-20T09:18:29.766Z,1007.24
2018-03-20T09:19:39.504Z,1007.28
2018-03-20T09:20:49.234Z,1007.24
2018-03-20T09:21:59.003Z,1007.27
2018-03-20T09:23:08.484Z,1007.28
2018-03-20T09:24:18.228Z,1007.33
2018-03-20T09:25:28.295Z,1007.38
2018-03-20T09:26:38.308Z,1007.32
2018-03-20T09:27:48.429Z,1007.37
2018-03-20T09:28:58.161Z,1007.43
2018-03-20T09:30:07.896Z,1007.44
2018-03-20T09:31:17.673Z,1007.44
2018-03-20T09:32:27.416Z,1007.46
2018-03-20T09:33:37.164Z,1007.49
2018-03-20T09:34:46.619Z,1007.49
2018-03-20T09:35:56.368Z,1007.57
2018-03-20T09:37:06.376Z,1007.54
2018-03-20T09:38:16.407Z,1007.57
2018-03-20T09:39:26.200Z,1007.56
2018-03-20T09:40:36.213Z,1007.58
2018-03-20T09:41:45.700Z,1007.58
2018-03-20T09:42:55.718Z,1007.59
2018-03-20T09:44:05.444Z,1007.62
2018-03-20T09:45:14.918Z,1007.65
2018-03-20T09:46:24.903Z,1007.68
2018-03-20T09:47:34.700Z,1007.69
2018-03-20T09:48:44.761Z,1007.71
2018-03-20T09:49:54.768Z,1007.73
2018-03-20T09:51:03.977Z,1007.77
2018-03-20T09:52:13.721Z,1007.79
2018-03-20T09:53:22.922Z,1007.81
2018-03-20T09:54:32.654Z,1007.82
2018-03-20T09:55:42.386Z,1007.86
2018-03-20T09:56:51.866Z,1007.91
2018-03-20T09:58:01.323Z,1007.9
2018-03-20T09:59:11.045Z,1007.93
2018-03-20T10:00:21.012Z,1007.94
2018-03-20T10:01:30.755Z,1007.94
2018-03-20T10:02:40.780Z,1007.99
2018-03-20T10:03:50.575Z,1007.97
2018-03-20T10:05:00.323Z,1007.96
2018-03-20T10:06:10.327Z,1008
2018-03-20T10:07:19.784Z,1008.01
2018-03-20T10:08:29.518Z,1008.02
2018-03-20T10:09:39.262Z,1008.02
2018-03-20T10:10:49.790Z,1008
2018-03-20T10:11:59.491Z,1008.06
2018-03-20T10:13:09.226Z,1008.07
2018-03-20T10:14:19.239Z,1008.11
2018-03-20T10:15:28.687Z,1008.07
2018-03-20T10:16:38.673Z,1008.03
2018-03-20T10:17:48.436Z,1008.02
2018-03-20T10:18:57.925Z,1008.06
2018-03-20T10:20:07.708Z,1008.07
2018-03-20T10:21:17.872Z,1008.09
2018-03-20T10:22:27.847Z,1008.02
2018-03-20T10:23:37.593Z,1008.08
2018-03-20T10:24:47.582Z,1008.12
2018-03-20T10:25:57.319Z,1008.09
2018-03-20T10:27:06.515Z,1008.1
2018-03-20T10:28:16.510Z,1008.08
2018-03-20T10:29:26.255Z,1008.12
2018-03-20T10:30:35.796Z,1008.15
2018-03-20T10:31:45.834Z,1008.12
2018-03-20T10:32:55.551Z,1008.17
2018-03-20T10:34:05.021Z,1008.21
2018-03-20T10:35:15.031Z,1008.2
2018-03-20T10:36:25.134Z,1008.23
2018-03-20T10:37:35.103Z,1008.28
2018-03-20T10:38:44.829Z,1008.28
2018-03-20T10:39:54.554Z,1008.27
2018-03-20T10:41:04.559Z,1008.33
2018-03-20T10:42:14.559Z,1008.35
2018-03-20T10:43:24.284Z,1008.37
2018-03-20T10:44:34.514Z,1008.36
2018-03-20T10:45:44.511Z,1008.4
2018-03-20T10:46:54.504Z,1008.39
2018-03-20T10:48:04.698Z,1008.42
2018-03-20T10:49:14.158Z,1008.41
2018-03-20T10:50:23.626Z,1008.46
2018-03-20T10:51:33.593Z,1008.51
2018-03-20T10:52:43.607Z,1008.49
2018-03-20T10:53:53.346Z,1008.44
2018-03-20T10:55:03.064Z,1008.54
2018-03-20T10:56:13.236Z,1008.51
2018-03-20T10:57:22.953Z,1008.55
2018-03-20T10:58:32.942Z,1008.61
2018-03-20T10:59:42.394Z,1008.54
2018-03-20T11:00:52.395Z,1008.56
2018-03-20T11:02:02.401Z,1008.6
2018-03-20T11:03:11.865Z,1008.65
2018-03-20T11:04:21.871Z,1008.68
2018-03-20T11:05:31.850Z,1008.65
2018-03-20T11:06:41.574Z,1008.66
2018-03-20T11:07:51.612Z,1008.74
2018-03-20T11:09:01.608Z,1008.79
2018-03-20T11:10:11.328Z,1008.79
2018-03-20T11:11:21.328Z,1008.81
2018-03-20T11:12:31.068Z,1008.88
2018-03-20T11:13:41.062Z,1008.84
2018-03-20T11:14:50.792Z,1008.88
2018-03-20T11:16:00.511Z,1008.92
2018-03-20T11:17:10.214Z,1008.93
2018-03-20T11:18:20.208Z,1008.96
2018-03-20T11:19:29.657Z,1008.98
2018-03-20T11:20:39.380Z,1008.96
2018-03-20T11:21:49.608Z,1009.01
2018-03-20T11:22:59.586Z,1009
2018-03-20T11:24:09.305Z,1009.03
2018-03-20T11:25:19.031Z,1009.04
2018-03-20T11:26:29.027Z,1009.1
2018-03-20T11:27:38.779Z,1009.14
2018-03-20T11:28:48.528Z,1009.16
2018-03-20T11:29:58.336Z,1009.22
2018-03-20T11:31:08.106Z,1009.15
2018-03-20T11:32:18.151Z,1009.19
2018-03-20T11:33:27.914Z,1009.21
2018-03-20T11:34:37.629Z,1009.18
2018-03-20T11:35:47.610Z,1009.2
2018-03-20T11:36:57.617Z,1009.28
2018-03-20T11:38:07.588Z,1009.34
2018-03-20T11:39:17.313Z,1009.36
2018-03-20T11:40:27.302Z,1009.33
2018-03-20T11:41:37.278Z,1009.38
2018-03-20T11:42:47.043Z,1009.41
2018-03-20T11:43:57.069Z,1009.41
2018-03-20T11:45:06.802Z,1009.35
2018-03-20T11:46:16.788Z,1009.38
2018-03-20T11:47:26.776Z,1009.34
2018-03-20T11:48:36.912Z,1009.32
2018-03-20T11:49:46.945Z,1009.38
2018-03-20T11:50:56.933Z,1009.33
2018-03-20T11:52:06.940Z,1009.35
2018-03-20T11:53:16.937Z,1009.43
2018-03-20T11:54:26.934Z,1009.44
2018-03-20T11:55:36.683Z,1009.47
2018-03-20T11:56:46.409Z,1009.46
2018-03-20T11:57:56.389Z,1009.5
2018-03-20T11:59:06.138Z,1009.49
2018-03-20T12:00:16.117Z,1009.51
2018-03-20T12:01:25.841Z,1009.55
2018-03-20T12:02:35.820Z,1009.57
2018-03-20T12:03:45.824Z,1009.58
2018-03-20T12:04:55.535Z,1009.62
2018-03-20T12:06:05.604Z,1009.66
2018-03-20T12:07:15.055Z,1009.7
2018-03-20T12:08:25.061Z,1009.6
2018-03-20T12:09:34.533Z,1009.68
2018-03-20T12:10:44.310Z,1009.64
2018-03-20T12:11:54.021Z,1009.7
2018-03-20T12:13:04.055Z,1009.73
2018-03-20T12:14:13.921Z,1009.77
2018-03-20T12:15:23.894Z,1009.73
2018-03-20T12:16:33.594Z,1009.7
2018-03-20T12:17:43.548Z,1009.79
2018-03-20T12:18:53.522Z,1009.81
2018-03-20T12:20:03.266Z,1009.82
2018-03-20T12:21:12.979Z,1009.83
2018-03-20T12:22:22.963Z,1009.88
2018-03-20T12:23:32.938Z,1009.84
2018-03-20T12:24:42.908Z,1009.86
2018-03-20T12:25:52.895Z,1009.86
2018-03-20T12:27:02.846Z,1009.94
2018-03-20T12:28:12.842Z,1009.93
2018-03-20T12:29:22.912Z,1009.97
2018-03-20T12:30:32.405Z,1009.95
2018-03-20T12:31:42.396Z,1010
2018-03-20T12:32:52.207Z,1009.99
2018-03-20T12:34:01.685Z,1010.05
2018-03-20T12:35:11.775Z,1010.05
2018-03-20T12:36:21.740Z,1010.04
2018-03-20T12:37:31.449Z,1010.07
2018-03-20T12:38:41.160Z,1010.13
2018-03-20T12:39:50.564Z,1010.15
2018-03-20T12:41:00.527Z,1010.13
2018-03-20T12:42:10.530Z,1010.15
2018-03-20T12:43:20.513Z,1010.16
2018-03-20T12:44:29.964Z,1010.26
2018-03-20T12:45:39.928Z,1010.24
2018-03-20T12:46:49.658Z,1010.29
2018-03-20T12:47:59.369Z,1010.28
2018-03-20T12:49:09.384Z,1010.25
2018-03-20T12:50:19.368Z,1010.28
2018-03-20T12:51:29.101Z,1010.27
2018-03-20T12:52:38.794Z,1010.29
2018-03-20T12:53:48.502Z,1010.26
2018-03-20T12:54:58.514Z,1010.34
2018-03-20T12:56:07.973Z,1010.27
2018-03-20T12:57:17.963Z,1010.28
2018-03-20T12:58:27.684Z,1010.28
2018-03-20T12:59:37.180Z,1010.31
2018-03-20T13:00:47.169Z,1010.28
2018-03-20T13:01:56.636Z,1010.31
2018-03-20T13:03:05.560Z,1010.29
2018-03-20T13:04:15.303Z,1010.26
2018-03-20T13:05:24.774Z,1010.27
2018-03-20T13:06:34.490Z,1010.33
2018-03-20T13:07:44.471Z,1010.27
2018-03-20T13:08:54.476Z,1010.26
2018-03-20T13:10:04.231Z,1010.34
2018-03-20T13:11:14.251Z,1010.31
2018-03-20T13:12:23.978Z,1010.32
2018-03-20T13:13:33.952Z,1010.35
2018-03-20T13:14:43.958Z,1010.35
2018-03-20T13:15:52.910Z,1010.32
2018-03-20T13:17:02.636Z,1010.35
2018-03-20T13:18:12.599Z,1010.38
2018-03-20T13:19:22.380Z,1010.4
2018-03-20T13:20:32.413Z,1010.38
2018-03-20T13:21:42.375Z,1010.43
2018-03-20T13:22:51.816Z,1010.42
2018-03-20T13:24:01.804Z,1010.36
2018-03-20T13:25:11.273Z,1010.44
2018-03-20T13:26:21.255Z,1010.38
2018-03-20T13:27:30.685Z,1010.36
2018-03-20T13:28:40.130Z,1010.4
2018-03-20T13:29:50.104Z,1010.37
2018-03-20T13:31:00.064Z,1010.43
2018-03-20T13:32:10.037Z,1010.45
2018-03-20T13:33:19.495Z,1010.47
2018-03-20T13:34:29.209Z,1010.43
2018-03-20T13:35:39.005Z,1010.49
2018-03-20T13:36:48.989Z,1010.41
2018-03-20T13:37:58.956Z,1010.44
2018-03-20T13:39:08.668Z,1010.41
2018-03-20T13:40:18.645Z,1010.43
2018-03-20T13:41:28.641Z,1010.46
2018-03-20T13:42:38.642Z,1010.53
2018-03-20T13:43:48.361Z,1010.56
2018-03-20T13:44:58.081Z,1010.57
2018-03-20T13:46:07.815Z,1010.52
2018-03-20T13:47:17.562Z,1010.62
2018-03-20T13:48:27.529Z,1010.62
2018-03-20T13:49:37.514Z,1010.67
2018-03-20T13:50:47.536Z,1010.54
2018-03-20T13:52:04.037Z,1010.67
2018-03-20T13:53:14.063Z,1010.61
2018-03-20T13:54:23.517Z,1010.69
2018-03-20T13:55:33.254Z,1010.74
2018-03-20T13:56:42.966Z,1010.79
2018-03-20T13:57:52.434Z,1010.86
2018-03-20T13:59:02.376Z,1010.85
2018-03-20T14:00:12.100Z,1010.85
2018-03-20T14:01:21.291Z,1010.87
2018-03-20T14:02:31.281Z,1010.82
2018-03-20T14:03:41.259Z,1010.9
2018-03-20T14:04:50.440Z,1011.01
2018-03-20T14:06:00.456Z,1011.02
2018-03-20T14:07:10.244Z,1010.94
2018-03-20T14:08:19.966Z,1011.02
2018-03-20T14:09:29.971Z,1011.03
2018-03-20T14:10:39.468Z,1011.04
2018-03-20T14:11:49.176Z,1011.05
2018-03-20T14:12:58.634Z,1011.11
2018-03-20T14:14:08.608Z,1011.09
2018-03-20T14:15:18.323Z,1011.19
2018-03-20T14:16:28.296Z,1011.14